Time;durP1;ratioP1;P1;durP2;ratioP2;P2;SDS_P1;SDS_P2;PMS_P1;PMS_P2;Temp;Humidity;BMP_temperature;BMP_pressure;BME280_temperature;BME280_humidity;BME280_pressure;Samples;Min_cycle;Max_cycle;Signal;HPM_P1;HPM_P2
2023/04/18 00:01:37;;;;;;;9.87;7.10;;;;;;;7.36;100.00;100745.84;5014496;28;20232;-65
2023/04/18 00:04:05;;;;;;;10.97;6.97;;;;;;;7.34;100.00;100753.53;5024275;28;20182;-65
2023/04/18 00:06:31;;;;;;;7.40;6.67;;;;;;;7.27;100.00;100750.34;5013446;28;20189;-67
2023/04/18 00:08:56;;;;;;;11.47;7.07;;;;;;;7.24;100.00;100744.47;5005520;28;20187;-65
2023/04/18 00:11:21;;;;;;;8.00;7.10;;;;;;;7.25;100.00;100751.28;5012994;28;20229;-65
2023/04/18 00:13:46;;;;;;;9.93;7.20;;;;;;;7.14;100.00;100748.22;5013952;28;20642;-66
2023/04/18 00:16:12;;;;;;;9.83;7.13;;;;;;;7.17;100.00;100748.09;5012279;28;20194;-66
2023/04/18 00:18:38;;;;;;;13.70;7.20;;;;;;;7.15;100.00;100737.09;5027329;28;20182;-66
2023/04/18 00:21:07;;;;;;;11.87;6.73;;;;;;;7.04;100.00;100743.34;5009524;28;20245;-65
2023/04/18 00:23:34;;;;;;;9.73;6.80;;;;;;;7.15;100.00;100732.81;5013740;28;20268;-65
2023/04/18 00:25:59;;;;;;;11.40;7.33;;;;;;;7.09;100.00;100732.97;5007769;28;20187;-65
2023/04/18 00:28:24;;;;;;;10.50;6.77;;;;;;;7.21;100.00;100735.19;5009626;28;20270;-64
2023/04/18 00:30:50;;;;;;;8.60;6.27;;;;;;;7.03;100.00;100733.16;5007934;28;20230;-64
2023/04/18 00:33:15;;;;;;;11.33;7.00;;;;;;;7.17;100.00;100728.47;5021022;28;20187;-65
2023/04/18 00:35:41;;;;;;;12.87;8.10;;;;;;;7.16;100.00;100729.38;5011851;28;20210;-66
2023/04/18 00:38:06;;;;;;;10.33;6.73;;;;;;;7.12;100.00;100727.78;5012232;28;20185;-65
2023/04/18 00:40:31;;;;;;;8.80;6.27;;;;;;;7.17;100.00;100725.94;5004805;28;20309;-65
2023/04/18 00:42:57;;;;;;;9.00;7.50;;;;;;;7.30;100.00;100730.66;5023705;28;20182;-66
2023/04/18 00:45:22;;;;;;;8.37;6.80;;;;;;;7.35;100.00;100719.38;5010940;28;20179;-66
2023/04/18 00:47:47;;;;;;;11.57;8.10;;;;;;;7.37;100.00;100724.47;5011761;28;20178;-66
2023/04/18 00:50:14;;;;;;;10.30;7.27;;;;;;;7.37;100.00;100732.97;5002315;28;20667;-66
2023/04/18 00:52:40;;;;;;;9.67;6.63;;;;;;;7.48;100.00;100722.41;5025963;28;20190;-66
2023/04/18 00:55:07;;;;;;;9.40;6.97;;;;;;;7.42;100.00;100732.84;5027035;28;20213;-65
2023/04/18 00:57:33;;;;;;;10.97;6.77;;;;;;;7.47;100.00;100728.41;5027291;28;20229;-65
2023/04/18 01:00:00;;;;;;;11.50;7.83;;;;;;;7.44;100.00;100725.94;5011917;28;20214;-65
2023/04/18 01:02:29;;;;;;;9.17;7.60;;;;;;;7.42;100.00;100727.72;5001491;28;20297;-64
2023/04/18 01:04:55;;;;;;;13.00;6.77;;;;;;;7.55;100.00;100730.72;5026945;28;20191;-65
2023/04/18 01:07:20;;;;;;;8.90;6.70;;;;;;;7.53;100.00;100724.81;5011788;28;20193;-65
2023/04/18 01:09:48;;;;;;;9.30;6.87;;;;;;;7.58;100.00;100721.22;5012167;28;20190;-64
2023/04/18 01:12:13;;;;;;;8.47;7.47;;;;;;;7.63;100.00;100717.69;5018837;28;20230;-66
2023/04/18 01:14:44;;;;;;;11.93;6.87;;;;;;;7.66;100.00;100720.97;5012071;28;20231;-65
2023/04/18 01:17:09;;;;;;;8.87;7.00;;;;;;;7.66;100.00;100720.97;5012484;28;20637;-65
2023/04/18 01:19:36;;;;;;;8.93;6.90;;;;;;;7.69;100.00;100720.88;5030199;28;20193;-66
2023/04/18 01:22:02;;;;;;;7.23;6.50;;;;;;;7.69;100.00;100714.91;5004654;28;20249;-66
2023/04/18 01:24:28;;;;;;;10.83;6.03;;;;;;;7.66;100.00;100709.91;5009402;28;20694;-65
2023/04/18 01:26:54;;;;;;;11.53;7.27;;;;;;;7.66;100.00;100709.91;5016266;28;20190;-65
2023/04/18 01:29:19;;;;;;;11.07;7.50;;;;;;;7.63;100.00;100708.28;5015568;28;20194;-65
2023/04/18 01:31:44;;;;;;;8.50;6.97;;;;;;;7.62;100.00;100710.91;5019543;28;20225;-65
2023/04/18 01:34:10;;;;;;;9.43;7.20;;;;;;;7.64;100.00;100711.66;5025643;28;20202;-65
2023/04/18 01:36:37;;;;;;;9.37;7.27;;;;;;;7.63;100.00;100708.28;5015668;28;20191;-65
2023/04/18 01:39:03;;;;;;;8.13;6.97;;;;;;;7.67;100.00;100701.34;5026296;28;20217;-65
2023/04/18 01:41:31;;;;;;;7.10;6.17;;;;;;;7.63;100.00;100699.75;5005456;28;20697;-65
2023/04/18 01:43:56;;;;;;;9.20;6.60;;;;;;;7.65;100.00;100703.94;5019460;28;20649;-65
2023/04/18 01:46:21;;;;;;;8.93;7.30;;;;;;;7.53;100.00;100696.66;5014793;28;20171;-66
2023/04/18 01:48:46;;;;;;;9.73;7.13;;;;;;;7.48;100.00;100696.81;5014421;28;20305;-65
2023/04/18 01:51:12;;;;;;;11.13;7.27;;;;;;;7.42;100.00;100697.84;5023232;28;20222;-66
2023/04/18 01:53:38;;;;;;;8.83;7.50;;;;;;;7.41;100.00;100708.13;5042932;28;20185;-66
2023/04/18 01:56:04;;;;;;;12.07;6.97;;;;;;;7.32;100.00;100700.72;5033825;28;20190;-66
2023/04/18 01:58:29;;;;;;;13.33;7.73;;;;;;;7.19;100.00;100705.41;5033088;28;20182;-65
2023/04/18 02:00:57;;;;;;;8.43;7.47;;;;;;;7.18;100.00;100706.28;5011138;28;20233;-65
2023/04/18 02:03:23;;;;;;;14.67;8.50;;;;;;;7.09;100.00;100705.69;5022881;28;20233;-66
2023/04/18 02:05:49;;;;;;;10.67;7.80;;;;;;;7.05;100.00;100698.16;5033097;28;20188;-65
2023/04/18 02:08:14;;;;;;;10.20;8.53;;;;;;;7.02;100.00;100698.22;5036667;28;20624;-66
2023/04/18 02:10:40;;;;;;;11.83;8.13;;;;;;;7.00;100.00;100695.72;5008317;28;20264;-65
2023/04/18 02:13:05;;;;;;;14.67;8.07;;;;;;;6.99;100.00;100698.34;5025407;28;20202;-65
2023/04/18 02:15:31;;;;;;;12.67;7.63;;;;;;;6.87;100.00;100697.81;5029839;28;20210;-65
2023/04/18 02:17:58;;;;;;;10.83;8.00;;;;;;;6.85;100.00;100697.03;5014369;28;20224;-65
2023/04/18 02:20:25;;;;;;;10.77;8.53;;;;;;;6.81;100.00;100703.13;5006537;28;20250;-64
2023/04/18 02:22:50;;;;;;;11.87;8.13;;;;;;;6.67;100.00;100693.25;5031375;28;20245;-64
2023/04/18 02:25:15;;;;;;;9.33;8.43;;;;;;;6.63;100.00;100702.75;5023029;28;20200;-64
2023/04/18 02:27:41;;;;;;;12.23;7.97;;;;;;;6.59;100.00;100701.16;5022006;28;20194;-65
2023/04/18 02:30:07;;;;;;;12.33;8.27;;;;;;;6.51;100.00;100702.25;5005737;28;20212;-65
2023/04/18 02:32:32;;;;;;;10.33;8.60;;;;;;;6.52;100.00;100704.78;5014227;28;20188;-66
2023/04/18 02:34:57;;;;;;;10.27;8.20;;;;;;;6.48;100.00;100702.38;5024985;28;20191;-65
2023/04/18 02:37:22;;;;;;;11.33;8.97;;;;;;;6.57;100.00;100696.97;5012953;28;20175;-65
2023/04/18 02:39:48;;;;;;;12.03;8.80;;;;;;;6.35;100.00;100701.84;5012616;28;20186;-65
2023/04/18 02:42:13;;;;;;;9.60;8.33;;;;;;;6.29;100.00;100698.59;5021113;28;20298;-65
2023/04/18 02:44:38;;;;;;;10.57;9.30;;;;;;;6.34;100.00;100700.16;5014146;28;20190;-65
2023/04/18 02:47:03;;;;;;;12.47;9.10;;;;;;;6.34;100.00;100707.81;5028986;28;20186;-65
2023/04/18 02:49:29;;;;;;;10.50;9.27;;;;;;;6.32;100.00;100704.50;5013621;28;20230;-64
2023/04/18 02:51:57;;;;;;;11.60;9.33;;;;;;;6.22;100.00;100704.72;5005653;28;20696;-64
2023/04/18 02:54:23;;;;;;;12.27;9.80;;;;;;;6.16;100.00;100702.34;5013482;28;20190;-64
2023/04/18 02:56:52;;;;;;;11.90;9.70;;;;;;;6.09;100.00;100709.34;5014038;28;20330;-63
2023/04/18 02:59:18;;;;;;;11.80;9.30;;;;;;;6.21;100.00;100702.22;5013403;28;20275;-64
2023/04/18 03:01:43;;;;;;;11.87;10.47;;;;;;;6.13;100.00;100712.66;4993474;28;20229;-64
2023/04/18 03:04:08;;;;;;;13.80;10.60;;;;;;;6.11;100.00;100707.56;5016056;28;20182;-64
2023/04/18 03:06:33;;;;;;;14.70;10.33;;;;;;;6.07;100.00;100700.03;5013205;28;20196;-64
2023/04/18 03:08:59;;;;;;;16.60;10.70;;;;;;;6.08;100.00;100707.66;5028325;28;20613;-64
2023/04/18 03:11:24;;;;;;;20.43;11.00;;;;;;;6.08;100.00;100710.22;5014743;28;20261;-64
2023/04/18 03:13:49;;;;;;;11.77;10.03;;;;;;;6.12;100.00;100706.69;5019422;28;20702;-64
2023/04/18 03:16:15;;;;;;;13.63;10.53;;;;;;;6.09;100.00;100708.47;5005623;28;20225;-65
2023/04/18 03:18:40;;;;;;;12.80;10.53;;;;;;;6.00;100.00;100717.22;5018051;28;20190;-67
2023/04/18 03:21:06;;;;;;;14.33;11.17;;;;;;;5.86;100.00;100712.44;5011666;28;20626;-66
2023/04/18 03:23:31;;;;;;;11.90;10.70;;;;;;;5.89;100.00;100712.38;5021508;28;20248;-64
2023/04/18 03:25:56;;;;;;;15.17;10.77;;;;;;;5.91;100.00;100715.72;5008831;28;20205;-64
2023/04/18 03:28:22;;;;;;;18.50;11.60;;;;;;;5.79;100.00;100718.56;5013165;28;20216;-67
2023/04/18 03:30:47;;;;;;;15.23;11.93;;;;;;;5.77;100.00;100720.34;4987859;28;20232;-63
2023/04/18 03:33:13;;;;;;;13.30;11.40;;;;;;;5.71;100.00;100721.31;5010705;28;20192;-65
2023/04/18 03:35:39;;;;;;;14.80;11.50;;;;;;;5.80;100.00;100720.25;5012883;28;20642;-66
2023/04/18 03:38:04;;;;;;;13.90;11.90;;;;;;;5.77;100.00;100728.81;5013264;28;20261;-66
2023/04/18 03:40:29;;;;;;;12.30;11.00;;;;;;;5.68;100.00;100718.84;5019565;28;20255;-65
2023/04/18 03:42:55;;;;;;;15.13;11.27;;;;;;;5.76;100.00;100716.09;5016192;28;20589;-65
2023/04/18 03:45:20;;;;;;;15.47;11.67;;;;;;;5.61;100.00;100714.78;5032024;28;20208;-65
2023/04/18 03:47:45;;;;;;;14.80;12.37;;;;;;;5.62;100.00;100719.81;5031503;28;20181;-64
2023/04/18 03:50:10;;;;;;;14.53;11.57;;;;;;;5.58;100.00;100723.34;5020217;28;20305;-65
2023/04/18 03:52:36;;;;;;;14.43;12.93;;;;;;;5.54;100.00;100716.59;5025699;28;20217;-64
2023/04/18 03:55:01;;;;;;;18.17;13.40;;;;;;;5.50;100.00;100715.00;5012666;28;20209;-65
2023/04/18 03:57:26;;;;;;;15.30;13.27;;;;;;;5.60;100.00;100716.47;5012720;28;20702;-66
2023/04/18 03:59:51;;;;;;;14.10;12.60;;;;;;;5.47;100.00;100722.72;5007529;28;20194;-65
2023/04/18 04:02:17;;;;;;;18.03;13.57;;;;;;;5.46;100.00;100721.06;5031860;28;20744;-65
2023/04/18 04:04:42;;;;;;;18.63;13.80;;;;;;;5.48;100.00;100724.41;5031697;28;20208;-65
2023/04/18 04:07:07;;;;;;;15.17;13.13;;;;;;;5.57;100.00;100724.22;5027250;28;20223;-65
2023/04/18 04:09:33;;;;;;;14.80;13.27;;;;;;;5.64;100.00;100727.44;5021348;28;20222;-66
2023/04/18 04:11:58;;;;;;;16.27;13.60;;;;;;;5.68;100.00;100723.97;4996530;28;20711;-65
2023/04/18 04:14:23;;;;;;;16.53;13.27;;;;;;;5.72;100.00;100725.56;5020215;28;20191;-66
2023/04/18 04:16:50;;;;;;;18.27;13.50;;;;;;;5.66;100.00;100723.97;5012314;28;20185;-65
2023/04/18 04:19:15;;;;;;;17.57;14.40;;;;;;;5.68;100.00;100721.41;5027117;28;20198;-64
2023/04/18 04:21:40;;;;;;;18.63;14.40;;;;;;;5.72;100.00;100722.13;5009284;28;20582;-65
2023/04/18 04:24:06;;;;;;;16.17;14.47;;;;;;;5.62;100.00;100724.94;5019357;28;20180;-64
2023/04/18 04:26:33;;;;;;;17.27;13.53;;;;;;;5.65;100.00;100726.56;5038007;28;20186;-64
2023/04/18 04:28:58;;;;;;;18.63;14.80;;;;;;;5.56;100.00;100730.19;5032756;28;20271;-63
2023/04/18 04:31:23;;;;;;;15.60;14.10;;;;;;;5.59;100.00;100719.06;5005200;28;20308;-64
2023/04/18 04:33:49;;;;;;;15.17;13.57;;;;;;;5.53;100.00;100729.41;5025674;28;20254;-65
2023/04/18 04:36:15;;;;;;;17.60;15.60;;;;;;;5.49;100.00;100726.94;5010777;28;20181;-65
2023/04/18 04:38:43;;;;;;;18.43;15.33;;;;;;;5.54;100.00;100736.19;5026931;28;20643;-67
2023/04/18 04:41:08;;;;;;;17.13;15.13;;;;;;;5.47;100.00;100740.59;5003748;28;20307;-64
2023/04/18 04:43:33;;;;;;;20.60;15.70;;;;;;;5.59;100.00;100736.94;5020851;28;20275;-64
2023/04/18 04:45:59;;;;;;;17.40;15.40;;;;;;;5.53;100.00;100732.78;5029784;28;20289;-65
2023/04/18 04:48:24;;;;;;;16.30;14.60;;;;;;;5.69;100.00;100738.38;5011595;28;20204;-64
2023/04/18 04:50:54;;;;;;;23.27;16.43;;;;;;;5.62;100.00;100737.69;5020056;28;20237;-65
2023/04/18 04:53:20;;;;;;;21.40;16.10;;;;;;;5.72;100.00;100743.41;5026853;28;20197;-65
2023/04/18 04:55:45;;;;;;;17.80;15.90;;;;;;;5.88;100.00;100740.47;5012111;28;20204;-65
2023/04/18 04:58:11;;;;;;;17.73;15.83;;;;;;;5.72;100.00;100734.91;5026889;28;20562;-65
2023/04/18 05:00:36;;;;;;;20.83;16.53;;;;;;;5.70;100.00;100742.59;5004676;28;20600;-65
2023/04/18 05:03:01;;;;;;;17.07;15.27;;;;;;;5.77;100.00;100736.47;5023579;28;20185;-65
2023/04/18 05:05:27;;;;;;;19.67;15.83;;;;;;;5.74;100.00;100741.69;5011689;28;21482;-65
2023/04/18 05:07:53;;;;;;;17.13;15.33;;;;;;;5.68;100.00;100736.72;5011703;28;20173;-65
2023/04/18 05:10:18;;;;;;;17.10;15.07;;;;;;;5.75;100.00;100735.69;5003085;28;20265;-65
2023/04/18 05:12:44;;;;;;;19.03;17.03;;;;;;;5.84;100.00;100742.25;5027463;28;20189;-65
2023/04/18 05:15:09;;;;;;;22.57;16.00;;;;;;;5.90;100.00;100741.28;5027462;28;20279;-66
2023/04/18 05:17:35;;;;;;;19.37;15.87;;;;;;;5.90;100.00;100746.41;5028057;28;20570;-66
2023/04/18 05:20:00;;;;;;;19.47;16.10;;;;;;;5.82;100.00;100741.50;5011226;28;20183;-64
2023/04/18 05:22:25;;;;;;;21.53;16.20;;;;;;;5.82;100.00;100736.38;5000061;28;20283;-65
2023/04/18 05:24:50;;;;;;;18.57;15.97;;;;;;;5.84;100.00;100744.00;5011402;28;20186;-64
2023/04/18 05:27:16;;;;;;;18.53;15.43;;;;;;;5.93;100.00;100744.59;5012553;28;20240;-65
2023/04/18 05:29:41;;;;;;;16.57;14.73;;;;;;;5.91;100.00;100746.34;5010822;28;20185;-65
2023/04/18 05:32:06;;;;;;;16.73;14.50;;;;;;;5.97;100.00;100747.94;5003283;28;20240;-64
2023/04/18 05:34:34;;;;;;;18.10;14.30;;;;;;;5.95;100.00;100750.53;5009508;28;20691;-64
2023/04/18 05:37:00;;;;;;;18.97;14.93;;;;;;;5.90;100.00;100752.31;5026670;28;20187;-65
2023/04/18 05:39:25;;;;;;;16.13;14.43;;;;;;;5.95;100.00;100754.78;5011240;28;20243;-65
2023/04/18 05:41:50;;;;;;;15.20;13.60;;;;;;;5.95;100.00;100755.63;5002884;28;20226;-65
2023/04/18 05:44:16;;;;;;;20.97;12.87;;;;;;;6.07;100.00;100761.34;5012885;28;20188;-64
2023/04/18 05:46:42;;;;;;;14.97;13.00;;;;;;;6.14;100.00;100747.53;5026838;28;20707;-64
2023/04/18 05:49:07;;;;;;;17.33;12.60;;;;;;;6.30;100.00;100751.38;5011802;28;20221;-64
2023/04/18 05:51:32;;;;;;;14.73;12.27;;;;;;;6.39;100.00;100757.94;5012973;28;20233;-64
2023/04/18 05:53:58;;;;;;;16.07;12.03;;;;;;;6.50;100.00;100756.81;5016587;28;20251;-64
2023/04/18 05:56:23;;;;;;;13.50;12.10;;;;;;;6.60;100.00;100755.69;5011190;28;20182;-65
2023/04/18 05:58:50;;;;;;;13.50;12.10;;;;;;;6.73;100.00;100758.75;5010744;28;20214;-65
2023/04/18 06:01:17;;;;;;;15.57;11.87;;;;;;;6.70;100.00;100764.78;5007933;28;20640;-65
2023/04/18 06:03:42;;;;;;;11.57;10.37;;;;;;;7.01;100.00;100756.25;5029034;28;20178;-65
2023/04/18 06:06:08;;;;;;;13.80;11.30;;;;;;;7.29;100.00;100757.97;5015134;28;20186;-65
2023/04/18 06:08:43;;;;;;;12.03;10.60;;;;;;;7.50;100.00;100768.44;5016046;28;20182;-65
2023/04/18 06:11:09;;;;;;;11.43;10.37;;;;;;;7.58;100.00;100767.31;5023224;28;20225;-65
2023/04/18 06:13:36;;;;;;;10.53;9.53;;;;;;;7.62;100.00;100767.22;5025057;28;20380;-64
2023/04/18 06:16:02;;;;;;;12.13;9.10;;;;;;;7.67;100.00;100776.44;4998974;28;20211;-65
2023/04/18 06:18:27;;;;;;;11.40;10.20;;;;;;;7.68;100.00;100769.59;5022756;28;20497;-65
2023/04/18 06:20:53;;;;;;;10.83;9.73;;;;;;;7.62;100.00;100775.75;5005541;28;20236;-65
2023/04/18 06:23:18;;;;;;;12.90;10.43;;;;;;;7.70;100.00;100778.06;5036519;28;20545;-65
2023/04/18 06:25:43;;;;;;;10.60;9.40;;;;;;;7.67;100.00;100785.84;5047882;28;20275;-65
2023/04/18 06:28:08;;;;;;;12.13;9.87;;;;;;;7.56;100.00;100786.19;5023972;28;20760;-65
2023/04/18 06:30:34;;;;;;;12.10;9.70;;;;;;;7.32;100.00;100790.31;5007458;28;20233;-64
2023/04/18 06:32:59;;;;;;;11.77;10.33;;;;;;;7.32;100.00;100792.88;5016526;28;20530;-64
2023/04/18 06:35:25;;;;;;;12.57;10.93;;;;;;;7.38;100.00;100787.56;5022587;28;20628;-66
2023/04/18 06:37:50;;;;;;;11.53;10.20;;;;;;;7.41;100.00;100788.31;5016183;28;20185;-67
2023/04/18 06:40:16;;;;;;;11.80;9.13;;;;;;;7.64;100.00;100791.03;5020421;28;20193;-68
2023/04/18 06:42:42;;;;;;;11.53;10.33;;;;;;;7.79;100.00;100790.59;5027626;28;20276;-66
2023/04/18 06:45:09;;;;;;;12.60;10.50;;;;;;;7.95;100.00;100790.06;5022216;28;20227;-65
2023/04/18 06:47:35;;;;;;;11.97;10.07;;;;;;;7.93;100.00;100787.56;5036464;28;20191;-66
2023/04/18 06:50:00;;;;;;;10.50;9.50;;;;;;;7.97;100.00;100798.56;5031310;28;21005;-65
2023/04/18 06:52:25;;;;;;;10.47;9.47;;;;;;;8.05;100.00;100789.72;5021409;28;20237;-65
2023/04/18 06:54:51;;;;;;;11.47;10.37;;;;;;;7.87;100.00;100800.56;5017632;28;20737;-65
2023/04/18 06:57:16;;;;;;;11.63;10.40;;;;;;;7.66;100.00;100795.22;5030457;28;20190;-67
2023/04/18 06:59:41;;;;;;;12.50;11.20;;;;;;;7.61;100.00;100803.97;5044717;28;20653;-67
2023/04/18 07:02:07;;;;;;;12.10;10.43;;;;;;;7.54;100.00;100801.59;5020882;28;20218;-67
2023/04/18 07:04:32;;;;;;;12.50;11.20;;;;;;;7.67;100.00;100803.78;5023371;28;20185;-66
2023/04/18 07:06:58;;;;;;;13.10;11.67;;;;;;;7.56;100.00;100810.03;5015991;28;20194;-67
2023/04/18 07:09:24;;;;;;;11.27;10.07;;;;;;;7.59;100.00;100811.66;5043159;28;20179;-66
2023/04/18 07:11:51;;;;;;;11.60;10.50;;;;;;;7.67;100.00;100826.81;5000193;28;20648;-65
2023/04/18 07:14:18;;;;;;;12.43;11.13;;;;;;;7.70;100.00;100814.75;5023914;28;20222;-67
2023/04/18 07:16:44;;;;;;;12.57;10.80;;;;;;;7.74;100.00;100820.63;5027886;28;20222;-66
2023/04/18 07:19:09;;;;;;;12.07;10.77;;;;;;;7.85;100.00;100813.44;5024393;28;20205;-65
2023/04/18 07:21:36;;;;;;;12.87;11.30;;;;;;;7.78;100.00;100816.22;5001459;28;20271;-65
2023/04/18 07:24:01;;;;;;;12.40;11.10;;;;;;;8.04;100.00;100820.53;5013038;28;20260;-67
2023/04/18 07:26:27;;;;;;;11.93;10.70;;;;;;;7.91;100.00;100826.06;5016693;28;20589;-66
2023/04/18 07:28:52;;;;;;;12.33;11.17;;;;;;;7.83;100.00;100820.31;5013066;28;20183;-65
2023/04/18 07:31:18;;;;;;;12.90;10.83;;;;;;;7.97;100.00;100814.75;4997167;28;20385;-66
2023/04/18 07:33:43;;;;;;;11.60;10.40;;;;;;;7.84;100.00;100816.03;5036131;28;20567;-66
2023/04/18 07:36:08;;;;;;;13.47;12.07;;;;;;;7.88;100.00;100812.50;5033500;28;20767;-66
2023/04/18 07:38:37;;;;;;;13.63;11.67;;;;;;;7.94;100.00;100811.44;5041718;28;20250;-66
2023/04/18 07:41:02;;;;;;;12.33;10.70;;;;;;;7.89;100.00;100811.63;5024002;28;20795;-67
2023/04/18 07:43:28;;;;;;;11.63;10.53;;;;;;;8.03;100.00;100809.44;5027570;28;20171;-67
2023/04/18 07:45:53;;;;;;;12.63;11.33;;;;;;;8.15;100.00;100815.03;5023994;28;20261;-65
2023/04/18 07:48:24;;;;;;;11.20;10.10;;;;;;;8.15;100.00;100815.88;5008978;28;20191;-66
2023/04/18 07:50:49;;;;;;;11.27;10.10;;;;;;;8.13;100.00;100815.09;5017201;28;20245;-66
2023/04/18 07:53:15;;;;;;;13.70;10.93;;;;;;;8.26;100.00;100823.22;5040963;28;20690;-66
2023/04/18 07:55:42;;;;;;;10.87;9.87;;;;;;;8.28;100.00;100823.19;5042479;28;20611;-67
2023/04/18 07:58:07;;;;;;;10.33;9.33;;;;;;;8.31;100.00;100818.78;5027342;28;20209;-65
2023/04/18 08:00:35;;;;;;;10.77;9.67;;;;;;;8.35;100.00;100825.47;5036895;28;20299;-65
2023/04/18 08:03:01;;;;;;;11.27;10.17;;;;;;;8.50;100.00;100836.97;5019893;28;20184;-66
2023/04/18 08:05:26;;;;;;;11.00;9.70;;;;;;;8.49;100.00;100829.34;5009935;28;20182;-67
2023/04/18 08:07:52;;;;;;;10.80;8.70;;;;;;;8.47;100.00;100838.78;5012480;28;20186;-67
2023/04/18 08:10:17;;;;;;;10.57;9.57;;;;;;;8.54;100.00;100830.84;5006948;28;20205;-66
2023/04/18 08:12:42;;;;;;;10.90;9.80;;;;;;;8.49;100.00;100837.84;5016906;28;20194;-67
2023/04/18 08:15:08;;;;;;;9.87;8.87;;;;;;;8.53;100.00;100836.03;5018730;28;20552;-66
2023/04/18 08:17:33;;;;;;;10.50;9.40;;;;;;;8.49;100.00;100842.97;5039691;28;20174;-66
2023/04/18 08:19:59;;;;;;;11.03;10.00;;;;;;;8.43;100.00;100832.91;5019147;28;20277;-66
2023/04/18 08:22:24;;;;;;;10.17;9.17;;;;;;;8.56;100.00;100836.75;5021241;28;20249;-66
2023/04/18 08:24:50;;;;;;;11.47;9.53;;;;;;;8.54;100.00;100835.97;5030725;28;20219;-66
2023/04/18 08:27:15;;;;;;;10.67;9.13;;;;;;;8.55;100.00;100841.94;5009944;28;20642;-67
2023/04/18 08:29:40;;;;;;;10.07;9.10;;;;;;;8.71;100.00;100834.56;5007984;28;20179;-66
2023/04/18 08:32:06;;;;;;;11.33;9.63;;;;;;;8.79;100.00;100847.94;5030485;28;20610;-66
2023/04/18 08:34:35;;;;;;;10.07;9.07;;;;;;;8.85;100.00;100844.34;5015078;28;20253;-67
2023/04/18 08:37:00;;;;;;;10.67;9.57;;;;;;;8.78;100.00;100836.03;5012252;28;20628;-66
2023/04/18 08:39:26;;;;;;;11.80;9.33;;;;;;;8.79;100.00;100845.38;5012006;28;20193;-66
2023/04/18 08:41:58;;;;;;;12.37;9.93;;;;;;;8.59;100.00;100846.06;5019659;28;20239;-66
2023/04/18 08:44:23;;;;;;;9.73;8.73;;;;;;;8.69;100.00;100847.41;5028179;28;20175;-65
2023/04/18 08:46:49;;;;;;;11.23;9.50;;;;;;;8.73;100.00;100850.72;5028645;28;20261;-67
2023/04/18 08:49:15;;;;;;;10.83;9.23;;;;;;;8.84;100.00;100845.22;5025812;28;20300;-65
2023/04/18 08:51:42;;;;;;;10.70;9.57;;;;;;;9.06;100.00;100842.72;5009212;28;20222;-66
2023/04/18 08:54:08;;;;;;;14.77;10.20;;;;;;;8.93;100.00;100846.63;5026684;28;20178;-66
2023/04/18 08:56:36;;;;;;;11.60;9.93;;;;;;;8.89;100.00;100840.75;5007109;28;20182;-68
2023/04/18 08:59:02;;;;;;;11.87;10.20;;;;;;;8.94;100.00;100849.13;5031656;28;20201;-68
2023/04/18 09:01:48;;;;;;;10.73;9.63;;;;;;;9.07;100.00;100854.66;5027244;28;20217;-67
2023/04/18 09:04:33;;;;;;;11.10;10.00;;;;;;;9.09;100.00;100840.06;5006550;28;20183;-67
2023/04/18 09:06:58;;;;;;;9.90;9.00;;;;;;;9.30;100.00;100851.25;5041322;28;20178;-66
2023/04/18 09:09:26;;;;;;;10.73;9.63;;;;;;;9.24;100.00;100853.22;5026836;28;20395;-65
2023/04/18 09:12:04;;;;;;;10.07;9.07;;;;;;;9.43;100.00;100845.66;5016623;28;20222;-67
2023/04/18 09:14:29;;;;;;;10.33;9.33;;;;;;;9.70;100.00;100838.63;5013063;28;20252;-67
2023/04/18 09:16:55;;;;;;;10.17;9.00;;;;;;;9.52;100.00;100845.31;5024164;28;20179;-67
2023/04/18 09:19:20;;;;;;;10.73;9.57;;;;;;;9.51;100.00;100851.34;5016710;28;20241;-67
2023/04/18 09:21:55;;;;;;;10.43;9.30;;;;;;;9.77;100.00;100847.75;5012490;28;20226;-68
2023/04/18 09:24:23;;;;;;;10.13;8.23;;;;;;;9.74;100.00;100845.31;5011508;28;20281;-67
2023/04/18 09:26:52;;;;;;;10.33;9.10;;;;;;;9.66;100.00;100844.78;5010678;28;20662;-70
2023/04/18 09:29:21;;;;;;;12.53;9.07;;;;;;;9.82;100.00;100840.72;5001368;28;20690;-67
2023/04/18 09:31:56;;;;;;;10.23;9.33;;;;;;;10.37;100.00;100841.97;4992446;28;20963;-67
2023/04/18 09:34:26;;;;;;;10.57;9.47;;;;;;;10.64;100.00;100839.97;5003141;28;20214;-69
2023/04/18 09:37:07;;;;;;;10.23;9.23;;;;;;;11.14;100.00;100835.25;5011552;28;20787;-68
2023/04/18 09:39:32;;;;;;;9.43;8.53;;;;;;;11.74;100.00;100824.72;5013239;28;20186;-65
2023/04/18 09:41:58;;;;;;;10.50;9.40;;;;;;;12.97;95.18;100823.81;5005506;28;20670;-66
2023/04/18 09:44:24;;;;;;;11.63;8.37;;;;;;;13.94;89.03;100813.34;5027377;28;20174;-65
2023/04/18 09:46:49;;;;;;;8.93;8.03;;;;;;;14.17;83.51;100817.19;5015022;28;20233;-66
2023/04/18 09:49:16;;;;;;;8.27;7.57;;;;;;;13.66;88.68;100822.66;5020375;28;20676;-66
2023/04/18 09:51:43;;;;;;;8.77;7.97;;;;;;;12.63;93.21;100822.97;5023848;28;20266;-67
2023/04/18 09:54:14;;;;;;;9.37;8.47;;;;;;;12.11;97.47;100827.28;5033061;28;20179;-66
2023/04/18 09:56:43;;;;;;;9.97;7.77;;;;;;;11.54;100.00;100824.84;5033246;28;20269;-66
2023/04/18 09:59:10;;;;;;;9.80;8.90;;;;;;;11.18;100.00;100831.59;5035328;28;20178;-66
2023/04/18 10:01:36;;;;;;;8.77;7.97;;;;;;;11.00;100.00;100822.97;5025339;28;20634;-65
2023/04/18 10:04:03;;;;;;;9.07;7.90;;;;;;;11.23;100.00;100823.69;5023751;28;20216;-65
2023/04/18 10:06:30;;;;;;;9.20;8.30;;;;;;;11.26;100.00;100820.94;5014756;28;20186;-67
2023/04/18 10:08:56;;;;;;;9.17;8.27;;;;;;;12.39;100.00;100819.00;5040441;28;20630;-66
2023/04/18 10:11:23;;;;;;;9.17;8.27;;;;;;;13.84;92.55;100817.38;5012596;28;20237;-67
2023/04/18 10:13:52;;;;;;;8.77;7.60;;;;;;;13.97;89.14;100820.09;4997438;28;20182;-67
2023/04/18 10:16:19;;;;;;;8.80;7.87;;;;;;;13.47;93.39;100809.94;5014930;28;20260;-67
2023/04/18 10:18:45;;;;;;;8.57;7.77;;;;;;;12.97;97.09;100816.88;5046602;28;20189;-67
2023/04/18 10:21:10;;;;;;;8.27;7.47;;;;;;;13.02;98.37;100811.47;4995123;28;20223;-66
2023/04/18 10:23:37;;;;;;;7.87;7.20;;;;;;;12.94;96.28;100819.63;5002400;28;20186;-66
2023/04/18 10:26:07;;;;;;;8.63;7.93;;;;;;;12.79;97.64;100813.53;5021436;28;20199;-67
2023/04/18 10:28:51;;;;;;;8.87;8.07;;;;;;;12.90;95.95;100812.97;5019579;28;20197;-67
2023/04/18 10:31:17;;;;;;;9.03;8.13;;;;;;;12.79;97.35;100810.09;4997483;28;20642;-67
2023/04/18 10:33:51;;;;;;;9.03;8.27;;;;;;;12.58;99.53;100815.50;5015565;28;20277;-67
2023/04/18 10:36:19;;;;;;;8.93;8.13;;;;;;;12.03;100.00;100819.09;5035479;28;20695;-67
2023/04/18 10:38:59;;;;;;;9.10;8.20;;;;;;;11.73;100.00;100802.44;5032137;28;20189;-66
2023/04/18 10:41:28;;;;;;;9.37;8.57;;;;;;;12.02;100.00;100807.09;5018970;28;20260;-67
2023/04/18 10:44:06;;;;;;;8.73;7.73;;;;;;;12.68;100.00;100800.38;5029859;28;20300;-66
2023/04/18 10:46:33;;;;;;;9.03;8.07;;;;;;;12.74;99.48;100800.03;5027367;28;20599;-66
2023/04/18 10:49:18;;;;;;;9.13;8.23;;;;;;;12.80;98.79;100791.97;5028722;28;20680;-66
2023/04/18 10:51:45;;;;;;;8.33;7.53;;;;;;;12.81;99.10;100803.13;5017289;28;20236;-66
2023/04/18 10:54:36;;;;;;;8.73;7.93;;;;;;;12.45;99.50;100797.19;5034654;28;20265;-66
2023/04/18 10:57:03;;;;;;;8.57;7.83;;;;;;;12.68;100.00;100792.63;5024869;28;20281;-66
2023/04/18 10:59:33;;;;;;;8.77;7.87;;;;;;;12.67;99.16;100789.19;5027921;28;20182;-67
2023/04/18 11:02:00;;;;;;;8.50;7.70;;;;;;;12.73;97.67;100783.69;5018358;28;20255;-67
2023/04/18 11:04:27;;;;;;;9.00;7.90;;;;;;;12.73;97.88;100778.53;5027724;28;20174;-66
2023/04/18 11:06:59;;;;;;;7.97;7.27;;;;;;;12.66;98.10;100771.22;5045728;28;20190;-67
2023/04/18 11:09:24;;;;;;;8.20;7.40;;;;;;;12.62;98.84;100762.78;5028681;28;20228;-68
2023/04/18 11:12:04;;;;;;;8.00;7.20;;;;;;;12.77;99.60;100768.88;5021712;28;20613;-69